createdAt,value
2019-02-02T00:00:37.485Z,52.70
2019-02-02T00:01:16.463Z,53.00
2019-02-02T00:02:16.460Z,54.20
2019-02-02T00:03:16.544Z,53.00
2019-02-02T00:04:17.621Z,53.30
2019-02-02T00:05:16.667Z,51.30
2019-02-02T00:06:38.010Z,46.60
2019-02-02T00:07:16.407Z,53.20
2019-02-02T00:08:16.841Z,52.10
2019-02-02T00:09:16.395Z,54.60
2019-02-02T00:10:16.376Z,54.60
2019-02-02T00:11:16.409Z,55.90
2019-02-02T00:12:37.352Z,56.70
2019-02-02T00:13:16.347Z,58.00
2019-02-02T00:14:16.341Z,53.60
2019-02-02T00:15:16.330Z,54.00
2019-02-02T00:16:16.335Z,54.20
2019-02-02T00:17:16.318Z,49.90
2019-02-02T00:18:37.310Z,51.00
2019-02-02T00:19:16.285Z,55.70
2019-02-02T00:20:16.279Z,52.40
2019-02-02T00:21:16.287Z,49.60
2019-02-02T00:22:16.253Z,46.50
2019-02-02T00:23:16.257Z,48.70
2019-02-02T00:24:37.246Z,53.10
2019-02-02T00:25:16.267Z,52.10
2019-02-02T00:26:16.218Z,46.90
2019-02-02T00:27:16.220Z,52.30
2019-02-02T00:28:16.201Z,51.20
2019-02-02T00:29:16.197Z,50.80
2019-02-02T00:30:37.175Z,48.30
2019-02-02T00:31:16.188Z,54.10
2019-02-02T00:32:16.148Z,53.70
2019-02-02T00:33:16.139Z,57.50
2019-02-02T00:34:16.130Z,54.20
2019-02-02T00:35:16.120Z,56.90
2019-02-02T00:36:37.134Z,52.00
2019-02-02T00:37:16.128Z,59.00
2019-02-02T00:38:16.174Z,59.90
2019-02-02T00:39:16.077Z,60.40
2019-02-02T00:40:16.077Z,61.00
2019-02-02T00:41:16.082Z,52.60
2019-02-02T00:42:37.076Z,51.70
2019-02-02T00:43:16.108Z,56.90
2019-02-02T00:44:16.027Z,51.20
2019-02-02T00:45:16.032Z,52.70
2019-02-02T00:46:16.007Z,53.40
2019-02-02T00:47:16.003Z,55.90
2019-02-02T00:48:37.010Z,52.40
2019-02-02T00:49:15.982Z,53.20
2019-02-02T00:50:15.963Z,58.20
2019-02-02T00:51:15.963Z,56.90
2019-02-02T00:52:15.950Z,54.10
2019-02-02T00:53:15.946Z,60.20
2019-02-02T00:54:36.936Z,57.10
2019-02-02T00:55:15.927Z,57.70
2019-02-02T00:56:15.908Z,61.00
2019-02-02T00:57:15.889Z,56.30
2019-02-02T00:58:15.882Z,58.20
2019-02-02T00:59:15.870Z,61.80
2019-02-02T01:00:36.869Z,58.90
2019-02-02T01:01:15.845Z,59.40
2019-02-02T01:02:15.853Z,55.90
2019-02-02T01:03:15.834Z,59.80
2019-02-02T01:04:15.820Z,59.30
2019-02-02T01:05:15.824Z,61.50
2019-02-02T01:06:36.831Z,56.50
2019-02-02T01:07:15.792Z,59.90
2019-02-02T01:08:15.775Z,60.40
2019-02-02T01:09:15.773Z,59.80
2019-02-02T01:10:15.758Z,63.50
2019-02-02T01:11:15.745Z,56.10
2019-02-02T01:12:36.741Z,57.00
2019-02-02T01:13:15.770Z,54.10
2019-02-02T01:14:15.719Z,59.30
2019-02-02T01:15:15.714Z,60.30
2019-02-02T01:16:15.699Z,68.70
2019-02-02T01:17:15.684Z,66.90
2019-02-02T01:18:36.686Z,61.70
2019-02-02T01:19:15.672Z,57.60
2019-02-02T01:20:15.651Z,58.50
2019-02-02T01:21:15.647Z,58.30
2019-02-02T01:22:15.646Z,56.50
2019-02-02T01:23:15.625Z,55.30
2019-02-02T01:24:36.620Z,53.00
2019-02-02T01:25:15.612Z,51.40
2019-02-02T01:26:15.596Z,58.00
2019-02-02T01:27:15.597Z,59.40
2019-02-02T01:28:15.586Z,60.00
2019-02-02T01:29:15.568Z,66.30
2019-02-02T01:30:36.562Z,60.10
2019-02-02T01:31:15.552Z,64.50
2019-02-02T01:32:15.940Z,62.90
2019-02-02T01:33:15.531Z,62.60
2019-02-02T01:34:15.513Z,58.80
2019-02-02T01:35:15.505Z,56.60
2019-02-02T01:36:36.499Z,63.30
2019-02-02T01:37:15.483Z,60.10
2019-02-02T01:38:15.479Z,61.40
2019-02-02T01:39:15.461Z,60.00
2019-02-02T01:40:15.457Z,60.20
2019-02-02T01:41:15.449Z,58.30
2019-02-02T01:42:36.447Z,56.90
2019-02-02T01:43:15.428Z,52.30
2019-02-02T01:44:15.415Z,60.90
2019-02-02T01:45:15.399Z,61.70
2019-02-02T01:46:15.434Z,57.70
2019-02-02T01:47:15.389Z,57.80
2019-02-02T01:48:36.391Z,58.20
2019-02-02T01:49:15.371Z,60.30
2019-02-02T01:50:15.356Z,60.50
2019-02-02T01:51:15.340Z,58.80
2019-02-02T01:52:15.330Z,57.90
2019-02-02T01:53:15.359Z,53.60
2019-02-02T01:54:38.379Z,56.50
2019-02-02T01:55:15.318Z,58.10
2019-02-02T01:56:15.288Z,62.40
2019-02-02T01:57:15.285Z,66.70
2019-02-02T01:58:16.887Z,58.70
2019-02-02T01:59:15.262Z,61.20
2019-02-02T02:00:36.262Z,57.60
2019-02-02T02:01:15.242Z,58.20
2019-02-02T02:02:15.229Z,58.90
2019-02-02T02:03:15.213Z,60.10
2019-02-02T02:04:15.215Z,55.70
2019-02-02T02:05:15.194Z,57.80
2019-02-02T02:06:36.204Z,60.20
2019-02-02T02:07:15.170Z,54.00
2019-02-02T02:08:15.169Z,51.30
2019-02-02T02:09:15.154Z,54.90
2019-02-02T02:10:15.158Z,50.40
2019-02-02T02:11:15.138Z,51.50
2019-02-02T02:12:36.137Z,48.90
2019-02-02T02:13:15.112Z,49.50
2019-02-02T02:14:15.117Z,47.10
2019-02-02T02:15:15.095Z,51.50
2019-02-02T02:16:15.085Z,47.80
2019-02-02T02:17:15.084Z,50.40
2019-02-02T02:18:36.073Z,50.70
2019-02-02T02:19:15.053Z,50.00
2019-02-02T02:20:15.037Z,53.60
2019-02-02T02:21:15.034Z,54.00
2019-02-02T02:22:15.033Z,53.40
2019-02-02T02:23:15.017Z,55.20
2019-02-02T02:24:36.012Z,54.50
2019-02-02T02:25:14.998Z,56.60
2019-02-02T02:26:15.002Z,59.90
2019-02-02T02:27:14.975Z,85.70
2019-02-02T02:28:14.966Z,81.70
2019-02-02T02:29:14.959Z,96.00
2019-02-02T02:30:35.956Z,70.50
2019-02-02T02:31:14.938Z,73.50
2019-02-02T02:32:14.932Z,81.00
2019-02-02T02:33:14.916Z,70.90
2019-02-02T02:34:14.905Z,66.20
2019-02-02T02:35:14.903Z,72.10
2019-02-02T02:36:35.898Z,71.00
2019-02-02T02:37:14.992Z,81.50
2019-02-02T02:38:14.865Z,69.90
2019-02-02T02:39:14.857Z,63.40
2019-02-02T02:40:14.846Z,62.90
2019-02-02T02:41:14.841Z,60.20
2019-02-02T02:42:35.823Z,58.20
2019-02-02T02:43:14.817Z,52.40
2019-02-02T02:44:14.801Z,59.70
2019-02-02T02:45:14.798Z,61.70
2019-02-02T02:46:14.796Z,61.90
2019-02-02T02:47:14.778Z,60.40
2019-02-02T02:48:35.759Z,61.50
2019-02-02T02:49:14.761Z,60.80
2019-02-02T02:50:14.741Z,64.10
2019-02-02T02:51:14.746Z,58.00
2019-02-02T02:52:14.728Z,61.40
2019-02-02T02:53:14.734Z,76.70
2019-02-02T02:54:35.721Z,78.00
2019-02-02T02:55:14.695Z,66.40
2019-02-02T02:56:14.683Z,60.20
2019-02-02T02:57:14.677Z,62.30
2019-02-02T02:58:14.668Z,62.20
2019-02-02T02:59:14.652Z,60.10
2019-02-02T03:00:35.649Z,60.10
2019-02-02T03:01:14.641Z,56.60
2019-02-02T03:02:14.643Z,62.40
2019-02-02T03:03:14.625Z,68.90
2019-02-02T03:04:14.629Z,76.00
2019-02-02T03:05:14.604Z,71.50
2019-02-02T03:06:35.588Z,67.40
2019-02-02T03:07:14.581Z,76.60
2019-02-02T03:08:15.352Z,73.70
2019-02-02T03:09:14.549Z,76.60
2019-02-02T03:10:14.535Z,72.00
2019-02-02T03:11:14.521Z,68.90
2019-02-02T03:12:35.523Z,73.90
2019-02-02T03:13:14.508Z,76.50
2019-02-02T03:14:14.500Z,75.90
2019-02-02T03:15:14.560Z,68.50
2019-02-02T03:16:14.473Z,66.70
2019-02-02T03:17:14.468Z,71.80
2019-02-02T03:18:35.480Z,69.50
2019-02-02T03:19:14.446Z,61.30
2019-02-02T03:20:14.433Z,64.60
2019-02-02T03:21:14.435Z,67.70
2019-02-02T03:22:14.585Z,61.00
2019-02-02T03:23:14.403Z,60.90
2019-02-02T03:24:35.400Z,60.70
2019-02-02T03:25:14.639Z,62.50
2019-02-02T03:26:14.376Z,64.50
2019-02-02T03:27:14.354Z,61.00
2019-02-02T03:28:14.347Z,61.70
2019-02-02T03:29:14.352Z,62.00
2019-02-02T03:30:35.346Z,66.10
2019-02-02T03:31:14.328Z,67.70
2019-02-02T03:32:14.326Z,68.00
2019-02-02T03:33:14.310Z,66.80
2019-02-02T03:34:14.293Z,70.40
2019-02-02T03:35:14.276Z,76.70
2019-02-02T03:36:35.273Z,69.30
2019-02-02T03:37:14.276Z,69.60
2019-02-02T03:38:14.246Z,69.20
2019-02-02T03:39:14.234Z,71.00
2019-02-02T03:40:14.223Z,65.30
2019-02-02T03:41:14.219Z,69.50
2019-02-02T03:42:35.234Z,62.20
2019-02-02T03:43:14.186Z,70.80
2019-02-02T03:44:14.187Z,63.20
2019-02-02T03:45:14.177Z,73.30
2019-02-02T03:46:14.158Z,68.00
2019-02-02T03:47:14.146Z,76.00
2019-02-02T03:48:35.136Z,71.40
2019-02-02T03:49:14.139Z,73.00
2019-02-02T03:50:14.127Z,76.90
2019-02-02T03:51:14.103Z,79.30
2019-02-02T03:52:14.092Z,79.10
2019-02-02T03:53:14.078Z,74.50
2019-02-02T03:54:35.069Z,84.80
2019-02-02T03:55:14.064Z,81.10
2019-02-02T03:56:14.063Z,81.10
2019-02-02T03:57:14.039Z,84.10
2019-02-02T03:58:14.033Z,84.50
2019-02-02T03:59:14.012Z,84.30
2019-02-02T04:00:35.008Z,88.70
2019-02-02T04:01:13.999Z,82.20
2019-02-02T04:02:14.003Z,88.20
2019-02-02T04:03:13.972Z,81.40
2019-02-02T04:04:13.964Z,83.30
2019-02-02T04:05:13.959Z,80.30
2019-02-02T04:06:34.948Z,84.40
2019-02-02T04:07:13.927Z,80.60
2019-02-02T04:08:13.927Z,84.70
2019-02-02T04:09:14.140Z,90.90
2019-02-02T04:10:13.906Z,83.90
2019-02-02T04:11:13.889Z,87.90
2019-02-02T04:12:34.883Z,91.20
2019-02-02T04:13:13.868Z,86.90
2019-02-02T04:14:13.853Z,90.40
2019-02-02T04:15:13.865Z,86.80
2019-02-02T04:16:13.839Z,80.80
2019-02-02T04:17:13.821Z,87.10
2019-02-02T04:18:35.741Z,90.00
2019-02-02T04:19:13.799Z,86.80
2019-02-02T04:20:13.806Z,88.90
2019-02-02T04:21:13.771Z,91.50
2019-02-02T04:22:13.778Z,85.90
2019-02-02T04:23:13.762Z,87.90
2019-02-02T04:24:34.754Z,88.40
2019-02-02T04:25:13.740Z,76.50
2019-02-02T04:26:13.732Z,90.10
2019-02-02T04:27:13.709Z,84.70
2019-02-02T04:28:13.701Z,85.00
2019-02-02T04:29:17.724Z,83.10
2019-02-02T04:30:34.696Z,86.10
2019-02-02T04:31:13.678Z,94.10
2019-02-02T04:32:13.658Z,92.80
2019-02-02T04:33:13.653Z,91.80
2019-02-02T04:34:13.645Z,88.10
2019-02-02T04:35:13.625Z,87.00
2019-02-02T04:36:34.631Z,90.20
2019-02-02T04:37:13.609Z,93.10
2019-02-02T04:38:13.605Z,97.00
2019-02-02T04:39:13.588Z,85.10
2019-02-02T04:40:14.524Z,81.70
2019-02-02T04:41:13.560Z,79.40
2019-02-02T04:42:34.556Z,88.60
2019-02-02T04:43:13.541Z,84.20
2019-02-02T04:44:13.540Z,84.90
2019-02-02T04:45:13.532Z,88.40
2019-02-02T04:46:13.523Z,91.40
2019-02-02T04:47:13.501Z,88.40
2019-02-02T04:48:34.501Z,82.70
2019-02-02T04:49:13.479Z,96.10
2019-02-02T04:50:13.477Z,97.30
2019-02-02T04:51:13.455Z,86.90
2019-02-02T04:52:13.453Z,92.10
2019-02-02T04:53:13.446Z,91.50
2019-02-02T04:54:34.449Z,86.70
2019-02-02T04:55:13.416Z,88.90
2019-02-02T04:56:13.408Z,91.60
2019-02-02T04:57:13.396Z,87.60
2019-02-02T04:58:13.384Z,86.90
2019-02-02T04:59:13.375Z,96.70
2019-02-02T05:00:34.376Z,86.90
2019-02-02T05:01:13.354Z,92.30
2019-02-02T05:02:13.361Z,89.90
2019-02-02T05:03:13.397Z,88.20
2019-02-02T05:04:13.319Z,87.70
2019-02-02T05:05:13.311Z,90.50
2019-02-02T05:06:34.319Z,88.50
2019-02-02T05:07:13.292Z,87.00
2019-02-02T05:08:13.281Z,92.50
2019-02-02T05:09:13.274Z,85.10
2019-02-02T05:10:13.270Z,86.70
2019-02-02T05:11:13.248Z,96.60
2019-02-02T05:12:34.238Z,94.90
2019-02-02T05:13:13.220Z,88.70
2019-02-02T05:14:13.212Z,90.90
2019-02-02T05:15:13.202Z,92.60
2019-02-02T05:16:13.190Z,93.10
2019-02-02T05:17:13.181Z,95.90
2019-02-02T05:18:34.178Z,91.70
2019-02-02T05:19:13.157Z,94.80
2019-02-02T05:20:13.146Z,96.40
2019-02-02T05:21:13.139Z,93.00
2019-02-02T05:22:13.124Z,93.30
2019-02-02T05:23:13.113Z,98.50
2019-02-02T05:24:34.116Z,97.10
2019-02-02T05:25:13.093Z,92.30
2019-02-02T05:26:13.097Z,99.00
2019-02-02T05:27:13.069Z,95.70
2019-02-02T05:28:13.064Z,93.90
2019-02-02T05:29:13.062Z,96.50
2019-02-02T05:30:34.057Z,99.20
2019-02-02T05:31:13.031Z,95.60
2019-02-02T05:32:13.016Z,91.40
2019-02-02T05:33:13.015Z,96.70
2019-02-02T05:34:13.001Z,92.80
2019-02-02T05:35:12.988Z,92.10
2019-02-02T05:36:33.976Z,93.20
2019-02-02T05:37:12.970Z,93.50
2019-02-02T05:38:12.957Z,96.70
2019-02-02T05:39:12.944Z,94.80
2019-02-02T05:40:12.927Z,98.80
2019-02-02T05:41:13.293Z,97.80
2019-02-02T05:42:33.909Z,90.20
2019-02-02T05:43:12.897Z,88.60
2019-02-02T05:44:12.896Z,94.50
2019-02-02T05:45:12.896Z,87.00
2019-02-02T05:46:12.869Z,87.20
2019-02-02T05:47:12.859Z,93.00
2019-02-02T05:48:33.862Z,99.30
2019-02-02T05:49:12.840Z,90.10
2019-02-02T05:50:12.832Z,93.40
2019-02-02T05:51:12.816Z,99.00
2019-02-02T05:52:12.803Z,97.60
2019-02-02T05:53:12.789Z,93.40
2019-02-02T05:54:33.781Z,92.70
2019-02-02T05:55:12.772Z,95.00
2019-02-02T05:56:12.761Z,94.50
2019-02-02T05:57:12.767Z,95.20
2019-02-02T05:58:12.742Z,100.10
2019-02-02T05:59:12.727Z,95.50
2019-02-02T06:00:33.718Z,90.10
2019-02-02T06:01:12.705Z,90.50
2019-02-02T06:02:12.692Z,103.60
2019-02-02T06:03:12.697Z,97.80
2019-02-02T06:04:12.668Z,101.90
2019-02-02T06:05:12.661Z,103.40
2019-02-02T06:06:33.661Z,100.10
2019-02-02T06:07:12.637Z,99.90
2019-02-02T06:08:12.627Z,106.80
2019-02-02T06:09:12.614Z,109.90
2019-02-02T06:10:12.612Z,99.00
2019-02-02T06:11:12.597Z,103.20
2019-02-02T06:12:33.588Z,100.70
2019-02-02T06:13:12.584Z,91.30
2019-02-02T06:14:12.561Z,109.00
2019-02-02T06:15:12.564Z,102.80
2019-02-02T06:16:12.547Z,99.60
2019-02-02T06:17:12.551Z,99.60
2019-02-02T06:18:33.526Z,101.60
2019-02-02T06:19:12.510Z,104.00
2019-02-02T06:20:12.503Z,91.80
2019-02-02T06:21:12.491Z,101.60
2019-02-02T06:22:12.485Z,97.90
2019-02-02T06:23:12.468Z,101.90
2019-02-02T06:24:33.459Z,103.40
2019-02-02T06:25:12.460Z,100.50
2019-02-02T06:26:12.437Z,101.80
2019-02-02T06:27:12.422Z,111.50
2019-02-02T06:28:12.422Z,104.10
2019-02-02T06:29:12.399Z,112.90
2019-02-02T06:30:33.394Z,108.00
2019-02-02T06:31:12.382Z,110.90
2019-02-02T06:32:12.413Z,107.00
2019-02-02T06:33:12.359Z,109.20
2019-02-02T06:34:12.340Z,105.10
2019-02-02T06:35:12.335Z,105.20
2019-02-02T06:36:33.330Z,110.90
2019-02-02T06:37:12.311Z,105.50
2019-02-02T06:38:12.309Z,100.00
2019-02-02T06:39:12.295Z,94.10
2019-02-02T06:40:12.286Z,102.10
2019-02-02T06:41:12.270Z,98.90
2019-02-02T06:42:33.263Z,104.50
2019-02-02T06:43:12.295Z,110.00
2019-02-02T06:44:12.239Z,107.20
2019-02-02T06:45:12.224Z,104.50
2019-02-02T06:46:12.211Z,95.40
2019-02-02T06:47:12.206Z,101.40
2019-02-02T06:48:33.205Z,106.10
2019-02-02T06:49:12.181Z,103.20
2019-02-02T06:50:12.172Z,107.50
2019-02-02T06:51:12.166Z,104.80
2019-02-02T06:52:12.154Z,107.50
2019-02-02T06:53:12.142Z,108.40
2019-02-02T06:54:33.944Z,101.90
2019-02-02T06:55:12.127Z,104.90
2019-02-02T06:56:12.110Z,108.40
2019-02-02T06:57:12.097Z,107.90
2019-02-02T06:58:12.093Z,107.80
2019-02-02T06:59:12.077Z,98.70
2019-02-02T07:00:33.094Z,102.90
2019-02-02T07:01:12.051Z,104.30
2019-02-02T07:02:12.051Z,106.20
2019-02-02T07:03:12.039Z,96.80
2019-02-02T07:04:12.028Z,108.30
2019-02-02T07:05:12.017Z,108.90
2019-02-02T07:06:33.008Z,106.00
2019-02-02T07:07:11.993Z,109.50
2019-02-02T07:08:11.988Z,110.70
2019-02-02T07:09:12.044Z,111.70
2019-02-02T07:10:11.972Z,98.80
2019-02-02T07:11:11.953Z,103.20
2019-02-02T07:12:32.944Z,104.40
2019-02-02T07:13:12.452Z,105.90
2019-02-02T07:14:11.944Z,103.40
2019-02-02T07:15:11.907Z,103.70
2019-02-02T07:16:11.901Z,98.90
2019-02-02T07:17:11.892Z,100.90
2019-02-02T07:18:32.887Z,100.50
2019-02-02T07:19:11.866Z,109.90
2019-02-02T07:20:11.867Z,94.60
2019-02-02T07:21:11.861Z,103.40
2019-02-02T07:22:11.955Z,111.20
2019-02-02T07:23:11.821Z,102.70
2019-02-02T07:24:32.820Z,114.90
2019-02-02T07:25:11.810Z,109.80
2019-02-02T07:26:11.795Z,105.90
2019-02-02T07:27:11.788Z,106.70
2019-02-02T07:28:11.780Z,110.30
2019-02-02T07:29:11.760Z,108.60
2019-02-02T07:30:32.775Z,105.70
2019-02-02T07:31:13.245Z,96.70
2019-02-02T07:32:11.742Z,100.50
2019-02-02T07:33:11.714Z,104.80
2019-02-02T07:34:11.715Z,101.30
2019-02-02T07:35:11.699Z,109.10
2019-02-02T07:36:32.689Z,102.50
2019-02-02T07:37:11.675Z,114.40
2019-02-02T07:38:11.668Z,113.90
2019-02-02T07:39:11.674Z,105.10
2019-02-02T07:40:11.653Z,103.40
2019-02-02T07:41:11.635Z,102.60
2019-02-02T07:42:32.634Z,99.70
2019-02-02T07:43:11.612Z,102.90
2019-02-02T07:44:11.599Z,105.00
2019-02-02T07:45:11.597Z,103.60
2019-02-02T07:46:14.932Z,99.40
2019-02-02T07:47:11.569Z,105.70
2019-02-02T07:48:32.565Z,110.30
2019-02-02T07:49:11.551Z,101.40
2019-02-02T07:50:11.549Z,108.30
2019-02-02T07:51:11.532Z,110.60
2019-02-02T07:52:11.566Z,114.30
2019-02-02T07:53:11.505Z,117.90
2019-02-02T07:54:33.235Z,120.60
2019-02-02T07:55:11.489Z,119.70
2019-02-02T07:56:11.486Z,113.30
2019-02-02T07:57:11.481Z,115.90
2019-02-02T07:58:11.459Z,114.80
2019-02-02T07:59:11.445Z,122.80
2019-02-02T08:00:40.194Z,114.00
2019-02-02T08:01:11.425Z,118.00
2019-02-02T08:02:11.420Z,115.70
2019-02-02T08:03:11.402Z,112.10
2019-02-02T08:04:11.391Z,106.00
2019-02-02T08:05:11.383Z,112.40
2019-02-02T08:06:32.387Z,110.20
2019-02-02T08:07:11.363Z,111.10
2019-02-02T08:08:11.351Z,109.10
2019-02-02T08:09:11.345Z,117.00
2019-02-02T08:10:11.330Z,106.60
2019-02-02T08:11:11.317Z,114.50
2019-02-02T08:12:32.323Z,110.50
2019-02-02T08:13:11.314Z,114.30
2019-02-02T08:14:11.598Z,108.90
2019-02-02T08:15:11.270Z,119.80
2019-02-02T08:16:11.269Z,114.30
2019-02-02T08:17:11.258Z,110.20
2019-02-02T08:18:32.255Z,112.40
2019-02-02T08:19:11.239Z,119.30
2019-02-02T08:20:11.286Z,116.50
2019-02-02T08:21:11.231Z,107.60
2019-02-02T08:22:11.201Z,107.80
2019-02-02T08:23:11.224Z,117.90
2019-02-02T08:24:32.194Z,108.20
2019-02-02T08:25:11.189Z,114.20
2019-02-02T08:26:11.156Z,120.10
2019-02-02T08:27:11.157Z,122.20
2019-02-02T08:28:11.146Z,119.70
2019-02-02T08:29:11.139Z,109.00
2019-02-02T08:30:35.103Z,108.50
2019-02-02T08:31:11.117Z,109.50
2019-02-02T08:32:11.103Z,102.10
2019-02-02T08:33:11.099Z,109.50
2019-02-02T08:34:11.082Z,107.20
2019-02-02T08:35:11.072Z,119.60
2019-02-02T08:36:32.076Z,115.50
2019-02-02T08:37:11.055Z,112.20
2019-02-02T08:38:11.304Z,123.80
2019-02-02T08:39:11.048Z,120.70
2019-02-02T08:40:11.019Z,116.40
2019-02-02T08:41:11.014Z,117.40
2019-02-02T08:42:32.002Z,119.10
2019-02-02T08:43:11.028Z,122.00
2019-02-02T08:44:11.002Z,118.80
2019-02-02T08:45:11.662Z,113.70
2019-02-02T08:46:10.954Z,112.40
2019-02-02T08:47:10.945Z,122.30
2019-02-02T08:48:31.936Z,115.70
2019-02-02T08:49:10.926Z,126.10
2019-02-02T08:50:12.748Z,113.30
2019-02-02T08:51:10.922Z,111.50
2019-02-02T08:52:10.927Z,115.00
2019-02-02T08:53:10.984Z,103.80
2019-02-02T08:54:31.887Z,118.30
2019-02-02T08:55:10.878Z,121.00
2019-02-02T08:56:10.860Z,109.60
2019-02-02T08:57:10.952Z,120.90
2019-02-02T08:58:10.938Z,118.80
2019-02-02T08:59:10.827Z,119.20
2019-02-02T09:00:31.825Z,124.10
2019-02-02T09:01:10.808Z,114.60
2019-02-02T09:02:10.784Z,117.10
2019-02-02T09:03:10.838Z,118.50
2019-02-02T09:04:10.774Z,113.20
2019-02-02T09:05:10.828Z,119.70
2019-02-02T09:06:38.657Z,124.90
2019-02-02T09:07:10.744Z,113.80
2019-02-02T09:08:10.722Z,125.30
2019-02-02T09:09:10.715Z,124.10
2019-02-02T09:10:10.708Z,128.40
2019-02-02T09:11:10.696Z,129.70
2019-02-02T09:12:31.691Z,112.40
2019-02-02T09:13:10.675Z,123.30
2019-02-02T09:14:10.675Z,122.50
2019-02-02T09:15:10.673Z,122.80
2019-02-02T09:16:10.653Z,116.70
2019-02-02T09:17:10.639Z,118.40
2019-02-02T09:18:31.644Z,114.10
2019-02-02T09:19:10.623Z,128.10
2019-02-02T09:20:10.612Z,118.60
2019-02-02T09:21:10.597Z,125.00
2019-02-02T09:22:10.601Z,116.30
2019-02-02T09:23:10.582Z,117.00
2019-02-02T09:24:31.573Z,119.20
2019-02-02T09:25:10.554Z,115.50
2019-02-02T09:26:10.550Z,119.20
2019-02-02T09:27:10.576Z,118.30
2019-02-02T09:28:10.529Z,116.80
2019-02-02T09:29:10.589Z,115.20
2019-02-02T09:30:31.525Z,109.60
2019-02-02T09:31:15.984Z,116.30
2019-02-02T09:32:10.490Z,117.20
2019-02-02T09:33:10.491Z,110.90
2019-02-02T09:34:10.492Z,118.90
2019-02-02T09:35:10.462Z,112.00
2019-02-02T09:36:31.457Z,110.80
2019-02-02T09:37:10.436Z,118.50
2019-02-02T09:38:12.255Z,125.80
2019-02-02T09:39:10.458Z,112.10
2019-02-02T09:40:10.410Z,119.60
2019-02-02T09:41:10.400Z,115.80
2019-02-02T09:42:31.400Z,110.90
2019-02-02T09:43:10.399Z,118.50
2019-02-02T09:44:10.592Z,117.30
2019-02-02T09:45:11.279Z,117.30
2019-02-02T09:46:12.460Z,120.40
2019-02-02T09:47:13.744Z,112.20
2019-02-02T09:48:33.838Z,112.40
2019-02-02T09:49:12.005Z,105.00
2019-02-02T09:50:10.317Z,111.20
2019-02-02T09:51:10.334Z,109.20
2019-02-02T09:52:11.409Z,104.30
2019-02-02T09:53:10.497Z,103.40
2019-02-02T09:54:33.442Z,103.00
2019-02-02T09:55:12.266Z,108.50
2019-02-02T09:56:10.255Z,111.70
2019-02-02T09:57:10.238Z,111.00
2019-02-02T09:58:10.225Z,116.20
2019-02-02T09:59:10.233Z,101.00
2019-02-02T10:00:31.212Z,110.60
2019-02-02T10:01:10.201Z,113.70
2019-02-02T10:02:10.212Z,114.80
2019-02-02T10:03:10.183Z,117.90
2019-02-02T10:04:10.181Z,110.20
2019-02-02T10:05:10.161Z,114.70
2019-02-02T10:06:31.156Z,116.30
2019-02-02T10:07:10.165Z,120.20
2019-02-02T10:08:10.142Z,117.60
2019-02-02T10:09:10.134Z,119.60
2019-02-02T10:10:10.130Z,113.80
2019-02-02T10:11:10.108Z,115.80
2019-02-02T10:12:31.098Z,116.50
2019-02-02T10:13:10.098Z,111.50
2019-02-02T10:14:10.074Z,108.30
2019-02-02T10:15:10.076Z,113.60
2019-02-02T10:16:10.067Z,115.90
2019-02-02T10:17:10.818Z,104.90
2019-02-02T10:18:31.048Z,103.60
2019-02-02T10:19:10.027Z,109.20
2019-02-02T10:20:10.026Z,104.20
2019-02-02T10:21:10.023Z,95.30
2019-02-02T10:22:10.003Z,99.30
2019-02-02T10:23:09.986Z,95.10
2019-02-02T10:24:30.990Z,98.80
2019-02-02T10:25:09.979Z,95.50
2019-02-02T10:26:09.969Z,92.60
2019-02-02T10:27:09.973Z,93.40
2019-02-02T10:28:10.854Z,93.10
2019-02-02T10:29:10.414Z,99.20
2019-02-02T10:30:30.938Z,97.40
2019-02-02T10:31:09.919Z,95.30
2019-02-02T10:32:09.908Z,96.50
2019-02-02T10:33:09.902Z,89.00
2019-02-02T10:34:12.395Z,98.60
2019-02-02T10:35:09.893Z,98.90
2019-02-02T10:36:30.879Z,97.40
2019-02-02T10:37:09.861Z,102.80
2019-02-02T10:38:09.859Z,93.40
2019-02-02T10:39:09.850Z,95.30
2019-02-02T10:40:09.843Z,97.90
2019-02-02T10:41:09.826Z,92.70
2019-02-02T10:42:30.830Z,95.00
2019-02-02T10:43:09.809Z,85.50
2019-02-02T10:44:09.809Z,102.70
2019-02-02T10:45:09.794Z,87.70
2019-02-02T10:46:10.827Z,92.20
2019-02-02T10:47:09.771Z,102.00
2019-02-02T10:48:30.771Z,92.10
2019-02-02T10:49:09.754Z,93.80
2019-02-02T10:50:09.749Z,91.80
2019-02-02T10:51:09.747Z,90.10
2019-02-02T10:52:09.733Z,96.20
2019-02-02T10:53:09.717Z,102.00
2019-02-02T10:54:30.728Z,95.60
2019-02-02T10:55:10.735Z,92.80
2019-02-02T10:56:09.731Z,91.60
2019-02-02T10:57:09.696Z,91.40
2019-02-02T10:58:09.681Z,91.40
2019-02-02T10:59:09.665Z,97.10
2019-02-02T11:00:30.662Z,94.90
2019-02-02T11:01:09.659Z,98.70
2019-02-02T11:02:09.639Z,87.90
2019-02-02T11:03:09.637Z,90.60
2019-02-02T11:04:09.675Z,90.20
2019-02-02T11:05:09.680Z,106.80
2019-02-02T11:06:30.777Z,95.40
2019-02-02T11:07:09.651Z,91.90
2019-02-02T11:08:09.607Z,100.40
2019-02-02T11:09:09.641Z,100.90
2019-02-02T11:10:09.630Z,102.00
2019-02-02T11:11:09.745Z,97.10
2019-02-02T11:12:30.562Z,95.30
2019-02-02T11:13:09.561Z,95.10
2019-02-02T11:14:09.549Z,96.60
2019-02-02T11:15:09.706Z,103.00
2019-02-02T11:16:09.815Z,96.10
2019-02-02T11:17:09.654Z,89.80
2019-02-02T11:18:30.561Z,87.00
2019-02-02T11:19:09.793Z,93.20
2019-02-02T11:20:09.475Z,90.50
2019-02-02T11:21:09.477Z,85.80
2019-02-02T11:22:09.846Z,74.70
2019-02-02T11:23:09.583Z,86.30
2019-02-02T11:24:30.650Z,81.00
2019-02-02T11:25:11.403Z,86.20
2019-02-02T11:26:09.513Z,81.30
2019-02-02T11:27:12.250Z,87.80
2019-02-02T11:28:09.582Z,76.80
2019-02-02T11:29:09.464Z,85.20
2019-02-02T11:30:30.548Z,82.20
2019-02-02T11:31:09.390Z,81.10
2019-02-02T11:32:09.399Z,84.90
2019-02-02T11:33:09.360Z,82.80
2019-02-02T11:34:09.430Z,82.40
2019-02-02T11:35:09.360Z,90.20
2019-02-02T11:36:30.347Z,91.00
2019-02-02T11:37:09.338Z,85.50
2019-02-02T11:38:09.332Z,91.70
2019-02-02T11:39:09.330Z,89.40
2019-02-02T11:40:09.314Z,83.10
2019-02-02T11:41:09.327Z,82.60
2019-02-02T11:42:30.302Z,86.80
2019-02-02T11:43:09.281Z,85.40
2019-02-02T11:44:10.186Z,81.90
2019-02-02T11:45:09.262Z,88.50
2019-02-02T11:46:09.252Z,83.20
2019-02-02T11:47:09.282Z,87.20
2019-02-02T11:48:30.244Z,88.20
2019-02-02T11:49:10.006Z,87.30
2019-02-02T11:50:09.225Z,93.80
2019-02-02T11:51:09.259Z,85.60
2019-02-02T11:52:09.212Z,95.10
2019-02-02T11:53:09.376Z,85.10
2019-02-02T11:54:30.430Z,88.90
2019-02-02T11:55:09.172Z,84.90
2019-02-02T11:56:09.278Z,87.40
2019-02-02T11:57:09.170Z,87.30
2019-02-02T11:58:09.162Z,85.30
2019-02-02T11:59:09.219Z,76.10
2019-02-02T12:00:30.141Z,91.60
2019-02-02T12:01:09.144Z,85.70
2019-02-02T12:02:14.425Z,91.10
2019-02-02T12:03:09.118Z,89.90
2019-02-02T12:04:09.133Z,86.30
2019-02-02T12:05:09.101Z,93.90
2019-02-02T12:06:30.093Z,96.10
2019-02-02T12:07:09.127Z,89.30
2019-02-02T12:08:09.347Z,88.80
2019-02-02T12:09:09.092Z,82.90
2019-02-02T12:10:09.050Z,90.00
2019-02-02T12:11:09.041Z,93.90
2019-02-02T12:12:30.065Z,99.40
2019-02-02T12:13:09.031Z,94.60
2019-02-02T12:14:09.013Z,89.90
2019-02-02T12:15:09.003Z,90.30
2019-02-02T12:16:09.608Z,92.30
2019-02-02T12:17:09.838Z,89.60
2019-02-02T12:18:30.008Z,92.40
2019-02-02T12:19:08.967Z,96.10
2019-02-02T12:20:08.961Z,91.00
2019-02-02T12:21:08.967Z,94.30
2019-02-02T12:22:09.034Z,95.90
2019-02-02T12:23:08.943Z,94.40
2019-02-02T12:24:29.949Z,88.70
2019-02-02T12:25:08.978Z,85.40
2019-02-02T12:26:08.910Z,83.30
2019-02-02T12:27:08.899Z,90.70
2019-02-02T12:28:09.234Z,92.00
2019-02-02T12:29:08.894Z,98.10
2019-02-02T12:30:30.553Z,93.90
2019-02-02T12:31:08.932Z,89.90
2019-02-02T12:32:08.911Z,91.00
2019-02-02T12:33:08.867Z,90.70
2019-02-02T12:34:08.852Z,95.70
2019-02-02T12:35:08.862Z,83.00
2019-02-02T12:36:29.827Z,89.10
2019-02-02T12:37:08.804Z,99.20
2019-02-02T12:38:08.830Z,96.20
2019-02-02T12:39:08.793Z,94.60
2019-02-02T12:40:08.781Z,93.20
2019-02-02T12:41:08.768Z,96.20
2019-02-02T12:42:29.781Z,97.40
2019-02-02T12:43:11.515Z,93.50
2019-02-02T12:44:08.756Z,97.00